Atlanta, Georgia
Traffic Map
Current Weather Conditions
Atlanta, Georgia
Scattered Clouds
Scattered Clouds
81°
Feels Like: 84°
Wind Chill: 81° Ceiling: Unl
Heat Index: 84° Visibility: 10mi
Dew Point: 69° Wind: 7mph
Humidity: 67% Direction: 320° (NW)
Pressure: 29.99in Gusts: 0mph
Raw Report DataKATL 200352Z 32006KT 10SM SCT250 27/21 A2999 RMK AO2 SLP144 T02720206
Traffic Incident Summary
Active as of:
Severity:
Category:
InformationThere was an issue retrieving the traffic information for this location. Please try a different location or try again shortly.
Advertisements